sensor_id;sensor_type;location;lat;lon;timestamp;P1;durP1;ratioP1;P2;durP2;ratioP2
13720;SDS011;6932;51.438;5.470;2023-04-09T00:02:11;33.63;;;24.73;;
13720;SDS011;6932;51.438;5.470;2023-04-09T00:43:42;26.30;;;19.57;;
13720;SDS011;6932;51.438;5.470;2023-04-09T00:46:10;26.07;;;19.93;;
13720;SDS011;6932;51.438;5.470;2023-04-09T00:48:36;27.40;;;20.13;;
13720;SDS011;6932;51.438;5.470;2023-04-09T00:51:02;26.63;;;19.53;;
13720;SDS011;6932;51.438;5.470;2023-04-09T00:53:28;24.67;;;18.60;;
13720;SDS011;6932;51.438;5.470;2023-04-09T00:55:54;24.63;;;18.13;;
13720;SDS011;6932;51.438;5.470;2023-04-09T01:11:58;24.87;;;18.60;;
13720;SDS011;6932;51.438;5.470;2023-04-09T01:14:48;23.03;;;17.63;;
13720;SDS011;6932;51.438;5.470;2023-04-09T01:17:35;26.10;;;18.93;;
13720;SDS011;6932;51.438;5.470;2023-04-09T01:20:16;24.70;;;18.23;;
13720;SDS011;6932;51.438;5.470;2023-04-09T01:26:10;25.17;;;18.30;;
13720;SDS011;6932;51.438;5.470;2023-04-09T01:28:55;25.37;;;18.17;;
13720;SDS011;6932;51.438;5.470;2023-04-09T01:31:31;24.87;;;18.80;;
13720;SDS011;6932;51.438;5.470;2023-04-09T01:34:02;24.80;;;18.73;;
13720;SDS011;6932;51.438;5.470;2023-04-09T01:36:31;25.03;;;19.20;;
13720;SDS011;6932;51.438;5.470;2023-04-09T01:38:59;25.20;;;18.93;;
13720;SDS011;6932;51.438;5.470;2023-04-09T01:41:26;24.47;;;18.93;;
13720;SDS011;6932;51.438;5.470;2023-04-09T01:43:56;26.10;;;20.03;;
13720;SDS011;6932;51.438;5.470;2023-04-09T01:46:25;23.73;;;18.10;;
13720;SDS011;6932;51.438;5.470;2023-04-09T01:49:10;25.73;;;19.67;;
13720;SDS011;6932;51.438;5.470;2023-04-09T01:51:37;26.43;;;19.00;;
13720;SDS011;6932;51.438;5.470;2023-04-09T01:54:03;26.47;;;20.17;;
13720;SDS011;6932;51.438;5.470;2023-04-09T02:14:17;28.83;;;21.17;;
13720;SDS011;6932;51.438;5.470;2023-04-09T02:16:46;28.47;;;20.77;;
13720;SDS011;6932;51.438;5.470;2023-04-09T02:19:11;29.63;;;20.70;;
13720;SDS011;6932;51.438;5.470;2023-04-09T02:21:37;27.00;;;20.30;;
13720;SDS011;6932;51.438;5.470;2023-04-09T02:24:03;29.23;;;20.40;;
13720;SDS011;6932;51.438;5.470;2023-04-09T02:26:29;26.83;;;20.50;;
13720;SDS011;6932;51.438;5.470;2023-04-09T02:28:55;34.07;;;20.20;;
13720;SDS011;6932;51.438;5.470;2023-04-09T02:31:20;26.90;;;20.37;;
13720;SDS011;6932;51.438;5.470;2023-04-09T02:33:46;29.20;;;20.63;;
13720;SDS011;6932;51.438;5.470;2023-04-09T02:55:54;29.27;;;21.40;;
13720;SDS011;6932;51.438;5.470;2023-04-09T02:58:20;34.03;;;22.17;;
13720;SDS011;6932;51.438;5.470;2023-04-09T03:00:45;28.40;;;21.07;;
13720;SDS011;6932;51.438;5.470;2023-04-09T03:03:11;30.70;;;22.23;;
13720;SDS011;6932;51.438;5.470;2023-04-09T03:05:37;30.33;;;21.43;;
13720;SDS011;6932;51.438;5.470;2023-04-09T03:08:02;28.63;;;20.87;;
13720;SDS011;6932;51.438;5.470;2023-04-09T03:10:28;28.87;;;21.40;;
13720;SDS011;6932;51.438;5.470;2023-04-09T03:12:54;28.73;;;21.77;;
13720;SDS011;6932;51.438;5.470;2023-04-09T03:15:20;29.50;;;21.17;;
13720;SDS011;6932;51.438;5.470;2023-04-09T03:17:45;29.27;;;21.57;;
13720;SDS011;6932;51.438;5.470;2023-04-09T03:20:11;29.10;;;21.20;;
13720;SDS011;6932;51.438;5.470;2023-04-09T03:22:37;29.10;;;21.60;;
13720;SDS011;6932;51.438;5.470;2023-04-09T03:28:45;28.57;;;20.93;;
13720;SDS011;6932;51.438;5.470;2023-04-09T03:31:10;28.80;;;21.33;;
13720;SDS011;6932;51.438;5.470;2023-04-09T03:33:37;31.17;;;22.33;;
13720;SDS011;6932;51.438;5.470;2023-04-09T03:36:04;29.30;;;21.37;;
13720;SDS011;6932;51.438;5.470;2023-04-09T03:38:30;28.80;;;21.70;;
13720;SDS011;6932;51.438;5.470;2023-04-09T03:40:56;28.27;;;20.60;;
13720;SDS011;6932;51.438;5.470;2023-04-09T03:43:21;27.63;;;20.13;;
13720;SDS011;6932;51.438;5.470;2023-04-09T03:45:47;28.40;;;19.57;;
13720;SDS011;6932;51.438;5.470;2023-04-09T03:55:47;28.50;;;20.27;;
13720;SDS011;6932;51.438;5.470;2023-04-09T03:58:13;26.37;;;18.97;;
13720;SDS011;6932;51.438;5.470;2023-04-09T04:04:19;25.70;;;18.97;;
13720;SDS011;6932;51.438;5.470;2023-04-09T04:06:54;26.80;;;18.17;;
13720;SDS011;6932;51.438;5.470;2023-04-09T04:09:20;27.53;;;19.57;;
13720;SDS011;6932;51.438;5.470;2023-04-09T04:11:46;25.87;;;19.00;;
13720;SDS011;6932;51.438;5.470;2023-04-09T04:14:12;24.97;;;18.27;;
13720;SDS011;6932;51.438;5.470;2023-04-09T04:16:39;26.43;;;18.20;;
13720;SDS011;6932;51.438;5.470;2023-04-09T04:19:05;29.93;;;19.57;;
13720;SDS011;6932;51.438;5.470;2023-04-09T04:21:31;26.17;;;18.53;;
13720;SDS011;6932;51.438;5.470;2023-04-09T04:23:57;25.13;;;18.33;;
13720;SDS011;6932;51.438;5.470;2023-04-09T04:26:22;26.63;;;18.80;;
13720;SDS011;6932;51.438;5.470;2023-04-09T04:28:48;27.40;;;19.07;;
13720;SDS011;6932;51.438;5.470;2023-04-09T04:31:14;25.57;;;18.27;;
13720;SDS011;6932;51.438;5.470;2023-04-09T04:48:32;27.43;;;18.77;;
13720;SDS011;6932;51.438;5.470;2023-04-09T04:50:58;27.20;;;18.53;;
13720;SDS011;6932;51.438;5.470;2023-04-09T04:53:25;24.77;;;17.43;;
13720;SDS011;6932;51.438;5.470;2023-04-09T04:55:51;26.80;;;17.37;;
13720;SDS011;6932;51.438;5.470;2023-04-09T04:58:18;26.17;;;17.20;;
13720;SDS011;6932;51.438;5.470;2023-04-09T05:03:34;25.40;;;17.70;;
13720;SDS011;6932;51.438;5.470;2023-04-09T05:09:18;25.40;;;17.30;;
13720;SDS011;6932;51.438;5.470;2023-04-09T05:12:03;24.83;;;17.53;;
13720;SDS011;6932;51.438;5.470;2023-04-09T05:14:28;25.27;;;17.77;;
13720;SDS011;6932;51.438;5.470;2023-04-09T05:16:54;24.77;;;17.13;;
13720;SDS011;6932;51.438;5.470;2023-04-09T05:19:20;23.83;;;17.00;;
13720;SDS011;6932;51.438;5.470;2023-04-09T05:21:45;23.60;;;17.10;;
13720;SDS011;6932;51.438;5.470;2023-04-09T05:24:11;23.97;;;16.77;;
13720;SDS011;6932;51.438;5.470;2023-04-09T05:30:27;23.97;;;16.63;;
13720;SDS011;6932;51.438;5.470;2023-04-09T05:32:52;24.50;;;17.23;;
13720;SDS011;6932;51.438;5.470;2023-04-09T05:35:18;24.23;;;16.93;;
13720;SDS011;6932;51.438;5.470;2023-04-09T05:37:44;25.43;;;17.57;;
13720;SDS011;6932;51.438;5.470;2023-04-09T05:40:10;24.60;;;16.90;;
13720;SDS011;6932;51.438;5.470;2023-04-09T05:42:36;24.27;;;17.00;;
13720;SDS011;6932;51.438;5.470;2023-04-09T05:45:02;25.57;;;17.30;;
13720;SDS011;6932;51.438;5.470;2023-04-09T05:47:28;25.60;;;17.43;;
13720;SDS011;6932;51.438;5.470;2023-04-09T05:49:54;25.43;;;17.40;;
13720;SDS011;6932;51.438;5.470;2023-04-09T07:05:58;26.00;;;18.57;;
13720;SDS011;6932;51.438;5.470;2023-04-09T07:08:24;24.47;;;18.37;;
13720;SDS011;6932;51.438;5.470;2023-04-09T07:10:50;24.83;;;18.67;;
13720;SDS011;6932;51.438;5.470;2023-04-09T07:17:06;25.77;;;19.07;;
13720;SDS011;6932;51.438;5.470;2023-04-09T07:19:31;25.60;;;18.83;;
13720;SDS011;6932;51.438;5.470;2023-04-09T07:21:57;25.63;;;19.13;;
13720;SDS011;6932;51.438;5.470;2023-04-09T07:24:23;27.27;;;19.97;;
13720;SDS011;6932;51.438;5.470;2023-04-09T07:26:48;27.00;;;19.37;;
13720;SDS011;6932;51.438;5.470;2023-04-09T07:29:14;25.90;;;19.60;;
13720;SDS011;6932;51.438;5.470;2023-04-09T07:35:21;24.93;;;18.93;;
13720;SDS011;6932;51.438;5.470;2023-04-09T07:37:47;27.47;;;19.73;;
13720;SDS011;6932;51.438;5.470;2023-04-09T07:40:13;26.87;;;20.07;;
13720;SDS011;6932;51.438;5.470;2023-04-09T07:49:53;27.03;;;19.80;;
13720;SDS011;6932;51.438;5.470;2023-04-09T07:56:00;25.80;;;19.83;;
13720;SDS011;6932;51.438;5.470;2023-04-09T07:58:25;25.70;;;19.93;;
13720;SDS011;6932;51.438;5.470;2023-04-09T08:00:51;25.73;;;19.63;;
13720;SDS011;6932;51.438;5.470;2023-04-09T08:06:33;25.80;;;19.10;;
13720;SDS011;6932;51.438;5.470;2023-04-09T08:08:58;24.83;;;19.53;;
13720;SDS011;6932;51.438;5.470;2023-04-09T08:11:24;27.10;;;20.13;;
13720;SDS011;6932;51.438;5.470;2023-04-09T08:13:50;24.97;;;19.70;;
13720;SDS011;6932;51.438;5.470;2023-04-09T08:19:58;24.57;;;19.00;;
13720;SDS011;6932;51.438;5.470;2023-04-09T08:22:23;26.00;;;20.43;;
13720;SDS011;6932;51.438;5.470;2023-04-09T08:24:50;29.03;;;20.73;;
13720;SDS011;6932;51.438;5.470;2023-04-09T08:34:10;27.43;;;21.47;;
13720;SDS011;6932;51.438;5.470;2023-04-09T08:36:37;26.27;;;20.97;;
13720;SDS011;6932;51.438;5.470;2023-04-09T08:39:02;26.57;;;20.90;;
13720;SDS011;6932;51.438;5.470;2023-04-09T08:41:28;25.33;;;20.00;;
13720;SDS011;6932;51.438;5.470;2023-04-09T08:43:55;26.27;;;20.60;;
13720;SDS011;6932;51.438;5.470;2023-04-09T08:46:22;26.17;;;20.93;;
13720;SDS011;6932;51.438;5.470;2023-04-09T08:48:49;26.27;;;20.43;;
13720;SDS011;6932;51.438;5.470;2023-04-09T08:51:17;27.03;;;21.80;;
13720;SDS011;6932;51.438;5.470;2023-04-09T08:53:45;26.23;;;21.00;;
13720;SDS011;6932;51.438;5.470;2023-04-09T08:56:16;25.57;;;20.37;;
13720;SDS011;6932;51.438;5.470;2023-04-09T08:58:43;26.00;;;21.23;;
13720;SDS011;6932;51.438;5.470;2023-04-09T09:04:03;26.17;;;20.77;;
13720;SDS011;6932;51.438;5.470;2023-04-09T09:06:32;26.70;;;21.20;;
13720;SDS011;6932;51.438;5.470;2023-04-09T09:11:43;24.80;;;19.87;;
13720;SDS011;6932;51.438;5.470;2023-04-09T09:14:13;24.50;;;19.23;;
13720;SDS011;6932;51.438;5.470;2023-04-09T09:27:01;24.30;;;18.77;;
13720;SDS011;6932;51.438;5.470;2023-04-09T09:29:26;24.20;;;19.30;;
13720;SDS011;6932;51.438;5.470;2023-04-09T09:31:53;24.00;;;19.93;;
13720;SDS011;6932;51.438;5.470;2023-04-09T09:34:20;24.87;;;19.80;;
13720;SDS011;6932;51.438;5.470;2023-04-09T09:36:48;27.17;;;21.27;;
13720;SDS011;6932;51.438;5.470;2023-04-09T09:39:14;24.57;;;20.13;;
13720;SDS011;6932;51.438;5.470;2023-04-09T09:41:42;23.80;;;19.20;;
13720;SDS011;6932;51.438;5.470;2023-04-09T09:44:10;25.73;;;19.40;;
13720;SDS011;6932;51.438;5.470;2023-04-09T10:01:47;21.73;;;17.57;;
13720;SDS011;6932;51.438;5.470;2023-04-09T10:04:22;20.40;;;16.27;;
13720;SDS011;6932;51.438;5.470;2023-04-09T10:06:51;22.17;;;16.77;;
13720;SDS011;6932;51.438;5.470;2023-04-09T10:09:17;19.90;;;15.93;;
13720;SDS011;6932;51.438;5.470;2023-04-09T10:11:46;20.50;;;16.77;;
13720;SDS011;6932;51.438;5.470;2023-04-09T10:14:13;21.50;;;16.70;;
13720;SDS011;6932;51.438;5.470;2023-04-09T10:16:42;20.07;;;16.23;;
13720;SDS011;6932;51.438;5.470;2023-04-09T10:19:08;22.37;;;17.23;;
13720;SDS011;6932;51.438;5.470;2023-04-09T10:28:16;22.47;;;17.63;;
13720;SDS011;6932;51.438;5.470;2023-04-09T10:30:42;21.80;;;16.80;;
13720;SDS011;6932;51.438;5.470;2023-04-09T10:35:35;19.27;;;14.83;;
13720;SDS011;6932;51.438;5.470;2023-04-09T10:38:01;17.47;;;13.77;;
13720;SDS011;6932;51.438;5.470;2023-04-09T10:47:49;15.90;;;11.83;;
13720;SDS011;6932;51.438;5.470;2023-04-09T10:50:22;16.10;;;11.43;;
13720;SDS011;6932;51.438;5.470;2023-04-09T10:52:51;15.10;;;11.47;;
13720;SDS011;6932;51.438;5.470;2023-04-09T10:55:40;14.30;;;10.80;;
13720;SDS011;6932;51.438;5.470;2023-04-09T10:58:13;13.93;;;10.47;;
13720;SDS011;6932;51.438;5.470;2023-04-09T11:04:22;16.70;;;12.43;;
13720;SDS011;6932;51.438;5.470;2023-04-09T11:07:08;15.97;;;12.10;;
13720;SDS011;6932;51.438;5.470;2023-04-09T11:09:34;13.57;;;9.70;;
13720;SDS011;6932;51.438;5.470;2023-04-09T11:12:00;13.17;;;8.67;;
13720;SDS011;6932;51.438;5.470;2023-04-09T11:14:27;12.37;;;8.77;;
13720;SDS011;6932;51.438;5.470;2023-04-09T11:16:53;11.40;;;8.37;;
13720;SDS011;6932;51.438;5.470;2023-04-09T11:30:31;12.40;;;8.40;;
13720;SDS011;6932;51.438;5.470;2023-04-09T11:32:58;12.67;;;9.50;;
13720;SDS011;6932;51.438;5.470;2023-04-09T11:35:25;13.00;;;9.10;;
13720;SDS011;6932;51.438;5.470;2023-04-09T11:37:51;12.97;;;9.53;;
13720;SDS011;6932;51.438;5.470;2023-04-09T11:40:18;13.07;;;9.40;;
13720;SDS011;6932;51.438;5.470;2023-04-09T11:42:51;14.17;;;10.37;;
13720;SDS011;6932;51.438;5.470;2023-04-09T11:45:19;12.80;;;9.37;;
13720;SDS011;6932;51.438;5.470;2023-04-09T11:47:50;13.63;;;9.97;;
13720;SDS011;6932;51.438;5.470;2023-04-09T12:00:16;13.90;;;9.17;;
13720;SDS011;6932;51.438;5.470;2023-04-09T12:02:44;14.20;;;9.80;;
13720;SDS011;6932;51.438;5.470;2023-04-09T12:05:19;13.47;;;8.93;;
13720;SDS011;6932;51.438;5.470;2023-04-09T12:07:48;12.97;;;9.37;;
13720;SDS011;6932;51.438;5.470;2023-04-09T12:10:15;13.43;;;9.73;;
13720;SDS011;6932;51.438;5.470;2023-04-09T12:12:45;12.23;;;8.97;;
13720;SDS011;6932;51.438;5.470;2023-04-09T12:17:50;12.33;;;8.90;;
13720;SDS011;6932;51.438;5.470;2023-04-09T12:20:25;13.77;;;10.13;;
13720;SDS011;6932;51.438;5.470;2023-04-09T12:26:35;13.27;;;9.90;;
13720;SDS011;6932;51.438;5.470;2023-04-09T12:43:54;12.50;;;8.43;;
13720;SDS011;6932;51.438;5.470;2023-04-09T12:46:20;12.37;;;8.80;;
13720;SDS011;6932;51.438;5.470;2023-04-09T12:48:46;12.47;;;9.00;;
13720;SDS011;6932;51.438;5.470;2023-04-09T12:51:12;12.03;;;8.40;;
13720;SDS011;6932;51.438;5.470;2023-04-09T12:53:38;11.77;;;8.30;;
13720;SDS011;6932;51.438;5.470;2023-04-09T12:56:04;13.80;;;8.20;;
13720;SDS011;6932;51.438;5.470;2023-04-09T12:58:31;12.03;;;8.87;;
13720;SDS011;6932;51.438;5.470;2023-04-09T13:00:57;12.80;;;8.67;;
13720;SDS011;6932;51.438;5.470;2023-04-09T13:06:55;11.60;;;8.10;;
13720;SDS011;6932;51.438;5.470;2023-04-09T13:13:01;12.60;;;8.40;;
13720;SDS011;6932;51.438;5.470;2023-04-09T13:15:27;11.60;;;8.20;;
13720;SDS011;6932;51.438;5.470;2023-04-09T13:21:34;12.10;;;8.40;;
13720;SDS011;6932;51.438;5.470;2023-04-09T13:27:50;11.23;;;7.93;;
13720;SDS011;6932;51.438;5.470;2023-04-09T13:30:15;11.50;;;7.87;;
13720;SDS011;6932;51.438;5.470;2023-04-09T13:32:41;11.33;;;7.50;;
13720;SDS011;6932;51.438;5.470;2023-04-09T13:35:07;12.40;;;7.47;;
13720;SDS011;6932;51.438;5.470;2023-04-09T13:37:35;11.83;;;8.20;;
13720;SDS011;6932;51.438;5.470;2023-04-09T13:40:00;10.77;;;7.40;;
13720;SDS011;6932;51.438;5.470;2023-04-09T13:42:26;10.87;;;7.43;;
13720;SDS011;6932;51.438;5.470;2023-04-09T13:44:52;10.70;;;7.27;;
13720;SDS011;6932;51.438;5.470;2023-04-09T13:47:19;10.83;;;7.10;;
13720;SDS011;6932;51.438;5.470;2023-04-09T13:49:45;10.80;;;7.63;;
13720;SDS011;6932;51.438;5.470;2023-04-09T13:52:11;12.33;;;8.00;;
13720;SDS011;6932;51.438;5.470;2023-04-09T13:54:38;10.87;;;7.87;;
13720;SDS011;6932;51.438;5.470;2023-04-09T14:00:45;11.50;;;7.70;;
13720;SDS011;6932;51.438;5.470;2023-04-09T14:03:30;10.97;;;7.40;;
13720;SDS011;6932;51.438;5.470;2023-04-09T14:05:56;10.67;;;7.20;;
13720;SDS011;6932;51.438;5.470;2023-04-09T14:08:22;13.03;;;7.03;;
13720;SDS011;6932;51.438;5.470;2023-04-09T14:10:48;10.20;;;7.10;;
13720;SDS011;6932;51.438;5.470;2023-04-09T14:13:13;10.17;;;7.03;;
13720;SDS011;6932;51.438;5.470;2023-04-09T14:15:39;11.23;;;7.30;;
13720;SDS011;6932;51.438;5.470;2023-04-09T14:18:05;9.87;;;6.90;;
13720;SDS011;6932;51.438;5.470;2023-04-09T14:20:32;11.27;;;7.10;;
13720;SDS011;6932;51.438;5.470;2023-04-09T14:22:58;10.73;;;7.37;;
13720;SDS011;6932;51.438;5.470;2023-04-09T14:25:24;10.60;;;7.20;;
13720;SDS011;6932;51.438;5.470;2023-04-09T14:46:49;9.03;;;6.20;;
13720;SDS011;6932;51.438;5.470;2023-04-09T14:49:18;8.90;;;6.07;;
13720;SDS011;6932;51.438;5.470;2023-04-09T14:51:45;9.73;;;6.60;;
13720;SDS011;6932;51.438;5.470;2023-04-09T14:54:11;10.17;;;6.47;;
13720;SDS011;6932;51.438;5.470;2023-04-09T14:56:37;10.67;;;6.40;;
13720;SDS011;6932;51.438;5.470;2023-04-09T14:59:02;10.80;;;6.80;;
13720;SDS011;6932;51.438;5.470;2023-04-09T15:01:28;9.13;;;5.90;;
13720;SDS011;6932;51.438;5.470;2023-04-09T15:03:54;10.57;;;6.80;;
13720;SDS011;6932;51.438;5.470;2023-04-09T15:21:13;9.40;;;6.37;;
13720;SDS011;6932;51.438;5.470;2023-04-09T15:23:39;9.03;;;6.00;;
13720;SDS011;6932;51.438;5.470;2023-04-09T15:26:05;9.37;;;6.40;;
13720;SDS011;6932;51.438;5.470;2023-04-09T15:28:30;8.93;;;6.13;;
13720;SDS011;6932;51.438;5.470;2023-04-09T15:30:56;10.20;;;6.43;;
13720;SDS011;6932;51.438;5.470;2023-04-09T15:33:22;12.73;;;6.03;;
13720;SDS011;6932;51.438;5.470;2023-04-09T15:35:47;8.97;;;5.77;;
13720;SDS011;6932;51.438;5.470;2023-04-09T15:38:13;8.53;;;5.77;;
13720;SDS011;6932;51.438;5.470;2023-04-09T15:48:01;9.10;;;5.70;;
13720;SDS011;6932;51.438;5.470;2023-04-09T15:50:26;9.40;;;6.00;;
13720;SDS011;6932;51.438;5.470;2023-04-09T15:56:33;9.77;;;5.83;;
13720;SDS011;6932;51.438;5.470;2023-04-09T15:59:01;10.20;;;5.80;;
13720;SDS011;6932;51.438;5.470;2023-04-09T16:01:29;9.10;;;5.57;;
13720;SDS011;6932;51.438;5.470;2023-04-09T16:03:55;8.57;;;5.73;;
13720;SDS011;6932;51.438;5.470;2023-04-09T16:06:21;7.77;;;5.17;;
13720;SDS011;6932;51.438;5.470;2023-04-09T16:08:47;7.90;;;5.27;;
13720;SDS011;6932;51.438;5.470;2023-04-09T16:11:13;8.00;;;5.03;;
13720;SDS011;6932;51.438;5.470;2023-04-09T16:13:39;7.50;;;5.10;;
13720;SDS011;6932;51.438;5.470;2023-04-09T16:19:55;7.70;;;5.13;;
13720;SDS011;6932;51.438;5.470;2023-04-09T16:22:20;9.70;;;5.50;;
13720;SDS011;6932;51.438;5.470;2023-04-09T16:24:46;8.67;;;5.80;;
13720;SDS011;6932;51.438;5.470;2023-04-09T16:30:52;9.93;;;6.50;;
13720;SDS011;6932;51.438;5.470;2023-04-09T16:33:18;10.13;;;6.40;;
13720;SDS011;6932;51.438;5.470;2023-04-09T16:35:44;9.70;;;6.60;;
13720;SDS011;6932;51.438;5.470;2023-04-09T16:38:09;8.23;;;5.27;;
13720;SDS011;6932;51.438;5.470;2023-04-09T16:40:36;7.33;;;4.93;;
13720;SDS011;6932;51.438;5.470;2023-04-09T16:46:43;7.20;;;4.80;;
13720;SDS011;6932;51.438;5.470;2023-04-09T16:49:08;8.07;;;4.73;;
13720;SDS011;6932;51.438;5.470;2023-04-09T16:51:34;7.43;;;4.73;;
13720;SDS011;6932;51.438;5.470;2023-04-09T16:54:00;6.93;;;4.40;;
13720;SDS011;6932;51.438;5.470;2023-04-09T17:00:07;7.47;;;4.77;;
13720;SDS011;6932;51.438;5.470;2023-04-09T17:06:15;8.03;;;4.80;;
13720;SDS011;6932;51.438;5.470;2023-04-09T17:08:41;7.90;;;4.73;;
13720;SDS011;6932;51.438;5.470;2023-04-09T17:11:06;8.13;;;5.03;;
13720;SDS011;6932;51.438;5.470;2023-04-09T17:13:33;7.37;;;5.03;;
13720;SDS011;6932;51.438;5.470;2023-04-09T17:16:00;8.63;;;5.30;;
13720;SDS011;6932;51.438;5.470;2023-04-09T17:18:27;9.00;;;4.87;;
13720;SDS011;6932;51.438;5.470;2023-04-09T17:35:47;7.87;;;5.00;;
13720;SDS011;6932;51.438;5.470;2023-04-09T17:38:12;8.97;;;5.33;;
13720;SDS011;6932;51.438;5.470;2023-04-09T17:44:25;8.53;;;5.70;;
13720;SDS011;6932;51.438;5.470;2023-04-09T17:50:12;9.53;;;6.20;;
13720;SDS011;6932;51.438;5.470;2023-04-09T17:52:38;21.93;;;6.57;;
13720;SDS011;6932;51.438;5.470;2023-04-09T17:55:05;9.77;;;5.83;;
13720;SDS011;6932;51.438;5.470;2023-04-09T17:57:32;11.77;;;6.27;;
13720;SDS011;6932;51.438;5.470;2023-04-09T17:59:59;9.63;;;5.47;;
13720;SDS011;6932;51.438;5.470;2023-04-09T18:05:28;9.57;;;6.20;;
13720;SDS011;6932;51.438;5.470;2023-04-09T18:07:54;10.60;;;5.77;;
13720;SDS011;6932;51.438;5.470;2023-04-09T18:10:21;9.90;;;6.10;;
13720;SDS011;6932;51.438;5.470;2023-04-09T18:16:27;11.17;;;6.10;;
13720;SDS011;6932;51.438;5.470;2023-04-09T18:18:53;9.80;;;6.37;;
13720;SDS011;6932;51.438;5.470;2023-04-09T18:21:19;9.97;;;6.10;;
13720;SDS011;6932;51.438;5.470;2023-04-09T18:31:09;11.00;;;6.53;;
13720;SDS011;6932;51.438;5.470;2023-04-09T18:36:29;11.60;;;6.33;;
13720;SDS011;6932;51.438;5.470;2023-04-09T18:38:55;10.53;;;6.63;;
13720;SDS011;6932;51.438;5.470;2023-04-09T18:41:25;9.47;;;6.43;;
13720;SDS011;6932;51.438;5.470;2023-04-09T18:43:51;10.17;;;6.50;;
13720;SDS011;6932;51.438;5.470;2023-04-09T18:46:17;10.73;;;7.07;;
13720;SDS011;6932;51.438;5.470;2023-04-09T18:52:24;12.10;;;7.80;;
13720;SDS011;6932;51.438;5.470;2023-04-09T18:54:50;11.83;;;7.27;;
13720;SDS011;6932;51.438;5.470;2023-04-09T18:57:15;11.70;;;7.60;;
13720;SDS011;6932;51.438;5.470;2023-04-09T18:59:41;10.83;;;7.10;;
13720;SDS011;6932;51.438;5.470;2023-04-09T19:02:09;11.43;;;7.63;;
13720;SDS011;6932;51.438;5.470;2023-04-09T19:04:35;11.37;;;7.27;;
13720;SDS011;6932;51.438;5.470;2023-04-09T19:07:03;11.53;;;7.60;;
13720;SDS011;6932;51.438;5.470;2023-04-09T19:09:32;11.90;;;7.67;;
13720;SDS011;6932;51.438;5.470;2023-04-09T19:11:59;10.63;;;6.40;;
13720;SDS011;6932;51.438;5.470;2023-04-09T19:14:25;10.70;;;7.03;;
13720;SDS011;6932;51.438;5.470;2023-04-09T19:20:32;11.53;;;6.63;;
13720;SDS011;6932;51.438;5.470;2023-04-09T19:22:58;11.20;;;7.00;;
13720;SDS011;6932;51.438;5.470;2023-04-09T19:25:24;11.77;;;7.37;;
13720;SDS011;6932;51.438;5.470;2023-04-09T19:31:39;14.50;;;7.30;;
13720;SDS011;6932;51.438;5.470;2023-04-09T19:34:05;11.03;;;7.30;;
13720;SDS011;6932;51.438;5.470;2023-04-09T19:36:31;11.90;;;7.47;;
13720;SDS011;6932;51.438;5.470;2023-04-09T19:38:57;10.80;;;7.00;;
13720;SDS011;6932;51.438;5.470;2023-04-09T19:41:23;11.83;;;8.17;;
13720;SDS011;6932;51.438;5.470;2023-04-09T19:43:49;11.87;;;8.13;;
13720;SDS011;6932;51.438;5.470;2023-04-09T19:46:15;12.40;;;8.33;;
13720;SDS011;6932;51.438;5.470;2023-04-09T19:48:40;12.80;;;8.77;;
13720;SDS011;6932;51.438;5.470;2023-04-09T19:51:06;13.30;;;9.10;;
13720;SDS011;6932;51.438;5.470;2023-04-09T20:11:53;11.57;;;7.67;;
13720;SDS011;6932;51.438;5.470;2023-04-09T20:14:19;12.37;;;7.57;;
13720;SDS011;6932;51.438;5.470;2023-04-09T20:16:45;12.20;;;7.43;;
13720;SDS011;6932;51.438;5.470;2023-04-09T20:22:52;11.43;;;7.50;;
13720;SDS011;6932;51.438;5.470;2023-04-09T20:25:20;11.10;;;7.40;;
13720;SDS011;6932;51.438;5.470;2023-04-09T20:27:46;12.40;;;7.03;;
13720;SDS011;6932;51.438;5.470;2023-04-09T20:30:13;10.90;;;7.17;;
13720;SDS011;6932;51.438;5.470;2023-04-09T20:32:40;11.47;;;7.23;;
13720;SDS011;6932;51.438;5.470;2023-04-09T20:38:46;11.33;;;7.20;;
13720;SDS011;6932;51.438;5.470;2023-04-09T20:41:12;10.53;;;6.80;;
13720;SDS011;6932;51.438;5.470;2023-04-09T20:43:38;10.83;;;6.50;;
13720;SDS011;6932;51.438;5.470;2023-04-09T20:49:36;9.93;;;6.30;;
13720;SDS011;6932;51.438;5.470;2023-04-09T20:52:01;10.30;;;6.70;;
13720;SDS011;6932;51.438;5.470;2023-04-09T20:54:27;10.43;;;6.80;;
13720;SDS011;6932;51.438;5.470;2023-04-09T20:56:53;10.30;;;6.40;;
13720;SDS011;6932;51.438;5.470;2023-04-09T20:59:19;11.13;;;6.67;;
13720;SDS011;6932;51.438;5.470;2023-04-09T21:01:45;12.27;;;6.43;;
13720;SDS011;6932;51.438;5.470;2023-04-09T21:04:12;10.30;;;6.30;;
13720;SDS011;6932;51.438;5.470;2023-04-09T21:06:38;10.40;;;6.23;;
13720;SDS011;6932;51.438;5.470;2023-04-09T21:09:04;9.37;;;6.00;;
13720;SDS011;6932;51.438;5.470;2023-04-09T21:11:30;11.53;;;6.40;;
13720;SDS011;6932;51.438;5.470;2023-04-09T21:17:36;10.20;;;6.30;;
13720;SDS011;6932;51.438;5.470;2023-04-09T21:23:43;9.90;;;5.70;;
13720;SDS011;6932;51.438;5.470;2023-04-09T21:29:49;9.67;;;6.03;;
13720;SDS011;6932;51.438;5.470;2023-04-09T21:32:15;10.13;;;6.60;;
13720;SDS011;6932;51.438;5.470;2023-04-09T21:34:41;10.73;;;6.80;;
13720;SDS011;6932;51.438;5.470;2023-04-09T21:37:07;10.57;;;6.33;;
13720;SDS011;6932;51.438;5.470;2023-04-09T21:47:04;10.97;;;6.70;;
13720;SDS011;6932;51.438;5.470;2023-04-09T21:49:32;12.27;;;6.67;;
13720;SDS011;6932;51.438;5.470;2023-04-09T21:52:03;10.00;;;6.17;;
13720;SDS011;6932;51.438;5.470;2023-04-09T21:54:30;11.00;;;6.50;;
13720;SDS011;6932;51.438;5.470;2023-04-09T22:11:40;10.70;;;6.03;;
13720;SDS011;6932;51.438;5.470;2023-04-09T22:17:47;9.17;;;5.80;;
13720;SDS011;6932;51.438;5.470;2023-04-09T22:20:13;8.47;;;5.50;;
13720;SDS011;6932;51.438;5.470;2023-04-09T22:22:38;9.50;;;6.10;;
13720;SDS011;6932;51.438;5.470;2023-04-09T22:28:46;10.33;;;5.90;;
13720;SDS011;6932;51.438;5.470;2023-04-09T22:31:12;9.97;;;6.00;;
13720;SDS011;6932;51.438;5.470;2023-04-09T22:33:38;8.97;;;5.70;;
13720;SDS011;6932;51.438;5.470;2023-04-09T22:36:04;10.67;;;6.30;;
13720;SDS011;6932;51.438;5.470;2023-04-09T22:38:30;9.07;;;5.50;;
13720;SDS011;6932;51.438;5.470;2023-04-09T22:40:56;9.47;;;5.77;;
13720;SDS011;6932;51.438;5.470;2023-04-09T22:43:22;9.23;;;5.67;;
13720;SDS011;6932;51.438;5.470;2023-04-09T22:45:48;10.07;;;6.30;;
13720;SDS011;6932;51.438;5.470;2023-04-09T22:52:05;9.40;;;5.77;;
13720;SDS011;6932;51.438;5.470;2023-04-09T22:54:32;9.67;;;5.70;;
13720;SDS011;6932;51.438;5.470;2023-04-09T22:56:57;9.43;;;6.10;;
13720;SDS011;6932;51.438;5.470;2023-04-09T22:59:23;8.87;;;5.80;;
13720;SDS011;6932;51.438;5.470;2023-04-09T23:01:49;9.13;;;5.90;;
13720;SDS011;6932;51.438;5.470;2023-04-09T23:04:15;9.43;;;5.40;;
13720;SDS011;6932;51.438;5.470;2023-04-09T23:06:41;8.47;;;5.33;;
13720;SDS011;6932;51.438;5.470;2023-04-09T23:09:08;9.67;;;5.97;;
13720;SDS011;6932;51.438;5.470;2023-04-09T23:15:15;10.57;;;6.17;;
13720;SDS011;6932;51.438;5.470;2023-04-09T23:24:31;9.73;;;5.97;;
13720;SDS011;6932;51.438;5.470;2023-04-09T23:26:57;8.37;;;5.33;;
13720;SDS011;6932;51.438;5.470;2023-04-09T23:29:23;10.17;;;6.27;;
13720;SDS011;6932;51.438;5.470;2023-04-09T23:35:33;8.80;;;5.57;;
13720;SDS011;6932;51.438;5.470;2023-04-09T23:37:58;11.10;;;6.00;;
13720;SDS011;6932;51.438;5.470;2023-04-09T23:40:24;9.90;;;5.50;;
13720;SDS011;6932;51.438;5.470;2023-04-09T23:46:40;9.07;;;5.70;;
13720;SDS011;6932;51.438;5.470;2023-04-09T23:49:05;8.90;;;5.67;;
13720;SDS011;6932;51.438;5.470;2023-04-09T23:51:31;9.93;;;5.80;;
13720;SDS011;6932;51.438;5.470;2023-04-09T23:53:57;8.37;;;5.50;;
13720;SDS011;6932;51.438;5.470;2023-04-09T23:56:22;9.47;;;5.70;;
13720;SDS011;6932;51.438;5.470;2023-04-09T23:58:49;7.73;;;4.93;;
